sensor_id;sensor_type;location;lat;lon;timestamp;pressure;altitude;pressure_sealevel;temperature;humidity
22550;BME280;11441;57.164;-2.120;2023-05-08T00:01:45;101038.44;;;9.17;100.00
22550;BME280;11441;57.164;-2.120;2023-05-08T00:04:12;101036.38;;;8.93;100.00
22550;BME280;11441;57.164;-2.120;2023-05-08T00:06:39;101042.84;;;8.88;100.00
22550;BME280;11441;57.164;-2.120;2023-05-08T00:09:06;101038.72;;;8.82;100.00
22550;BME280;11441;57.164;-2.120;2023-05-08T00:11:33;101045.34;;;8.81;100.00
22550;BME280;11441;57.164;-2.120;2023-05-08T00:14:00;101029.81;;;9.06;100.00
22550;BME280;11441;57.164;-2.120;2023-05-08T00:16:26;101035.44;;;8.89;100.00
22550;BME280;11441;57.164;-2.120;2023-05-08T00:18:53;101028.06;;;8.80;100.00
22550;BME280;11441;57.164;-2.120;2023-05-08T00:21:20;101033.56;;;8.80;100.00
22550;BME280;11441;57.164;-2.120;2023-05-08T00:23:47;101030.41;;;8.91;100.00
22550;BME280;11441;57.164;-2.120;2023-05-08T00:26:14;101006.69;;;8.65;100.00
22550;BME280;11441;57.164;-2.120;2023-05-08T00:28:41;101016.28;;;9.01;100.00
22550;BME280;11441;57.164;-2.120;2023-05-08T00:31:08;101025.19;;;8.98;100.00
22550;BME280;11441;57.164;-2.120;2023-05-08T00:33:34;101009.88;;;8.88;100.00
22550;BME280;11441;57.164;-2.120;2023-05-08T00:36:02;101011.25;;;8.82;100.00
22550;BME280;11441;57.164;-2.120;2023-05-08T00:38:31;101003.00;;;9.03;100.00
22550;BME280;11441;57.164;-2.120;2023-05-08T00:40:59;101002.66;;;9.04;100.00
22550;BME280;11441;57.164;-2.120;2023-05-08T00:43:26;101004.00;;;8.98;100.00
22550;BME280;11441;57.164;-2.120;2023-05-08T00:46:00;100997.16;;;9.04;100.00
22550;BME280;11441;57.164;-2.120;2023-05-08T00:48:28;100996.28;;;8.92;100.00
22550;BME280;11441;57.164;-2.120;2023-05-08T00:50:56;100995.94;;;8.93;100.00
22550;BME280;11441;57.164;-2.120;2023-05-08T00:53:24;100983.00;;;8.81;100.00
22550;BME280;11441;57.164;-2.120;2023-05-08T00:55:52;100988.53;;;8.94;100.00
22550;BME280;11441;57.164;-2.120;2023-05-08T00:58:20;100987.69;;;9.14;100.00
22550;BME280;11441;57.164;-2.120;2023-05-08T01:00:49;100986.75;;;9.10;100.00
22550;BME280;11441;57.164;-2.120;2023-05-08T01:03:17;100976.31;;;9.03;100.00
22550;BME280;11441;57.164;-2.120;2023-05-08T01:05:44;100968.75;;;9.00;100.00
22550;BME280;11441;57.164;-2.120;2023-05-08T01:08:11;100969.69;;;9.04;100.00
22550;BME280;11441;57.164;-2.120;2023-05-08T01:11:10;100974.47;;;8.95;100.00
22550;BME280;11441;57.164;-2.120;2023-05-08T01:13:49;100971.56;;;8.92;100.00
22550;BME280;11441;57.164;-2.120;2023-05-08T01:22:30;100966.97;;;8.83;100.00
22550;BME280;11441;57.164;-2.120;2023-05-08T01:33:47;100962.00;;;8.98;100.00
22550;BME280;11441;57.164;-2.120;2023-05-08T01:36:34;100966.00;;;9.00;100.00
22550;BME280;11441;57.164;-2.120;2023-05-08T01:39:13;100968.69;;;8.88;100.00
22550;BME280;11441;57.164;-2.120;2023-05-08T01:42:23;100966.22;;;8.95;100.00
22550;BME280;11441;57.164;-2.120;2023-05-08T01:45:10;100962.41;;;8.87;100.00
22550;BME280;11441;57.164;-2.120;2023-05-08T01:47:39;100965.81;;;8.84;100.00
22550;BME280;11441;57.164;-2.120;2023-05-08T01:50:17;100967.16;;;8.99;100.00
22550;BME280;11441;57.164;-2.120;2023-05-08T01:52:48;100958.16;;;9.11;100.00
22550;BME280;11441;57.164;-2.120;2023-05-08T01:55:23;100959.16;;;9.06;100.00
22550;BME280;11441;57.164;-2.120;2023-05-08T01:57:57;100962.50;;;9.12;100.00
22550;BME280;11441;57.164;-2.120;2023-05-08T02:00:25;100955.41;;;9.11;100.00
22550;BME280;11441;57.164;-2.120;2023-05-08T02:02:54;100951.22;;;8.93;100.00
22550;BME280;11441;57.164;-2.120;2023-05-08T02:05:24;100950.69;;;9.12;100.00
22550;BME280;11441;57.164;-2.120;2023-05-08T02:07:53;100940.09;;;9.22;100.00
22550;BME280;11441;57.164;-2.120;2023-05-08T02:10:24;100922.22;;;9.16;100.00
22550;BME280;11441;57.164;-2.120;2023-05-08T02:13:10;100936.91;;;9.33;100.00
22550;BME280;11441;57.164;-2.120;2023-05-08T02:15:40;100936.63;;;9.13;100.00
22550;BME280;11441;57.164;-2.120;2023-05-08T02:18:08;100920.94;;;9.14;100.00
22550;BME280;11441;57.164;-2.120;2023-05-08T02:20:36;100927.94;;;9.11;100.00
22550;BME280;11441;57.164;-2.120;2023-05-08T02:23:04;100921.50;;;9.07;100.00
22550;BME280;11441;57.164;-2.120;2023-05-08T02:25:32;100919.34;;;9.13;100.00
22550;BME280;11441;57.164;-2.120;2023-05-08T02:28:00;100924.97;;;9.16;100.00
22550;BME280;11441;57.164;-2.120;2023-05-08T02:30:29;100919.72;;;9.23;100.00
22550;BME280;11441;57.164;-2.120;2023-05-08T02:32:57;100912.47;;;9.19;100.00
22550;BME280;11441;57.164;-2.120;2023-05-08T02:35:28;100916.13;;;9.23;100.00
22550;BME280;11441;57.164;-2.120;2023-05-08T02:37:57;100900.34;;;9.20;100.00
22550;BME280;11441;57.164;-2.120;2023-05-08T02:40:27;100897.75;;;9.36;100.00
22550;BME280;11441;57.164;-2.120;2023-05-08T02:42:55;100889.59;;;9.27;100.00
22550;BME280;11441;57.164;-2.120;2023-05-08T02:45:24;100895.34;;;9.34;100.00
22550;BME280;11441;57.164;-2.120;2023-05-08T02:48:06;100883.09;;;9.44;100.00
22550;BME280;11441;57.164;-2.120;2023-05-08T02:50:44;100880.09;;;9.37;100.00
22550;BME280;11441;57.164;-2.120;2023-05-08T02:53:56;100885.56;;;9.24;100.00
22550;BME280;11441;57.164;-2.120;2023-05-08T02:56:41;100886.72;;;9.23;100.00
22550;BME280;11441;57.164;-2.120;2023-05-08T02:59:19;100884.78;;;9.24;100.00
22550;BME280;11441;57.164;-2.120;2023-05-08T03:01:58;100878.72;;;9.31;100.00
22550;BME280;11441;57.164;-2.120;2023-05-08T03:04:35;100881.66;;;9.13;100.00
22550;BME280;11441;57.164;-2.120;2023-05-08T03:07:03;100877.00;;;9.26;100.00
22550;BME280;11441;57.164;-2.120;2023-05-08T03:09:44;100878.25;;;9.16;100.00
22550;BME280;11441;57.164;-2.120;2023-05-08T03:12:22;100863.13;;;9.22;100.00
22550;BME280;11441;57.164;-2.120;2023-05-08T03:15:03;100880.28;;;9.07;100.00
22550;BME280;11441;57.164;-2.120;2023-05-08T03:17:34;100868.16;;;9.08;100.00
22550;BME280;11441;57.164;-2.120;2023-05-08T03:20:04;100873.66;;;9.08;100.00
22550;BME280;11441;57.164;-2.120;2023-05-08T03:22:36;100859.13;;;9.20;100.00
22550;BME280;11441;57.164;-2.120;2023-05-08T03:25:06;100854.66;;;9.28;100.00
22550;BME280;11441;57.164;-2.120;2023-05-08T03:27:36;100833.47;;;9.28;100.00
22550;BME280;11441;57.164;-2.120;2023-05-08T03:30:03;100835.66;;;9.35;100.00
22550;BME280;11441;57.164;-2.120;2023-05-08T03:32:35;100841.50;;;9.33;100.00
22550;BME280;11441;57.164;-2.120;2023-05-08T03:35:04;100829.59;;;9.29;100.00
22550;BME280;11441;57.164;-2.120;2023-05-08T03:37:52;100826.72;;;9.13;100.00
22550;BME280;11441;57.164;-2.120;2023-05-08T03:40:20;100824.19;;;9.20;100.00
22550;BME280;11441;57.164;-2.120;2023-05-08T03:42:47;100820.44;;;9.13;100.00
22550;BME280;11441;57.164;-2.120;2023-05-08T03:45:16;100821.91;;;9.10;100.00
22550;BME280;11441;57.164;-2.120;2023-05-08T03:47:44;100829.47;;;9.13;100.00
22550;BME280;11441;57.164;-2.120;2023-05-08T03:50:12;100821.91;;;9.10;100.00
22550;BME280;11441;57.164;-2.120;2023-05-08T03:52:39;100816.63;;;9.05;100.00
22550;BME280;11441;57.164;-2.120;2023-05-08T03:55:06;100815.94;;;9.08;100.00
22550;BME280;11441;57.164;-2.120;2023-05-08T03:57:39;100809.78;;;9.11;100.00
22550;BME280;11441;57.164;-2.120;2023-05-08T04:00:15;100811.13;;;9.17;100.00
22550;BME280;11441;57.164;-2.120;2023-05-08T04:02:49;100793.53;;;9.18;100.00
22550;BME280;11441;57.164;-2.120;2023-05-08T04:05:20;100808.63;;;9.24;100.00
22550;BME280;11441;57.164;-2.120;2023-05-08T04:08:27;100813.88;;;9.17;100.00
22550;BME280;11441;57.164;-2.120;2023-05-08T04:13:55;100812.31;;;9.16;100.00
22550;BME280;11441;57.164;-2.120;2023-05-08T04:16:26;100814.34;;;9.19;100.00
22550;BME280;11441;57.164;-2.120;2023-05-08T04:19:01;100816.19;;;9.15;100.00
22550;BME280;11441;57.164;-2.120;2023-05-08T04:21:32;100818.25;;;9.18;100.00
22550;BME280;11441;57.164;-2.120;2023-05-08T04:24:01;100819.16;;;9.22;100.00
22550;BME280;11441;57.164;-2.120;2023-05-08T04:26:29;100813.66;;;9.10;100.00
22550;BME280;11441;57.164;-2.120;2023-05-08T04:29:15;100798.34;;;9.21;100.00
22550;BME280;11441;57.164;-2.120;2023-05-08T04:31:44;100804.16;;;9.32;100.00
22550;BME280;11441;57.164;-2.120;2023-05-08T04:34:11;100806.34;;;9.39;100.00
22550;BME280;11441;57.164;-2.120;2023-05-08T04:36:38;100804.41;;;9.39;100.00
22550;BME280;11441;57.164;-2.120;2023-05-08T04:39:06;100806.56;;;9.46;100.00
22550;BME280;11441;57.164;-2.120;2023-05-08T04:41:33;100807.38;;;9.47;100.00
22550;BME280;11441;57.164;-2.120;2023-05-08T04:44:03;100801.31;;;9.41;100.00
22550;BME280;11441;57.164;-2.120;2023-05-08T04:46:31;100789.97;;;9.42;100.00
22550;BME280;11441;57.164;-2.120;2023-05-08T04:48:58;100786.66;;;9.49;100.00
22550;BME280;11441;57.164;-2.120;2023-05-08T04:51:27;100786.50;;;9.33;100.00
22550;BME280;11441;57.164;-2.120;2023-05-08T04:53:54;100784.03;;;9.40;100.00
22550;BME280;11441;57.164;-2.120;2023-05-08T04:56:22;100776.34;;;9.21;100.00
22550;BME280;11441;57.164;-2.120;2023-05-08T04:59:07;100781.38;;;9.19;100.00
22550;BME280;11441;57.164;-2.120;2023-05-08T05:01:34;100782.63;;;9.34;100.00
22550;BME280;11441;57.164;-2.120;2023-05-08T05:04:01;100794.06;;;9.36;100.00
22550;BME280;11441;57.164;-2.120;2023-05-08T05:06:28;100787.13;;;9.27;100.00
22550;BME280;11441;57.164;-2.120;2023-05-08T05:08:56;100793.06;;;9.41;100.00
22550;BME280;11441;57.164;-2.120;2023-05-08T05:11:23;100786.16;;;9.47;100.00
22550;BME280;11441;57.164;-2.120;2023-05-08T05:13:51;100777.47;;;9.45;100.00
22550;BME280;11441;57.164;-2.120;2023-05-08T05:16:18;100780.56;;;9.43;100.00
22550;BME280;11441;57.164;-2.120;2023-05-08T05:18:45;100797.63;;;9.61;100.00
22550;BME280;11441;57.164;-2.120;2023-05-08T05:21:12;100801.06;;;9.46;100.00
22550;BME280;11441;57.164;-2.120;2023-05-08T05:23:39;100786.88;;;9.56;100.00
22550;BME280;11441;57.164;-2.120;2023-05-08T05:26:25;100795.31;;;9.63;100.00
22550;BME280;11441;57.164;-2.120;2023-05-08T05:28:52;100796.81;;;9.36;100.00
22550;BME280;11441;57.164;-2.120;2023-05-08T05:31:19;100796.25;;;9.55;100.00
22550;BME280;11441;57.164;-2.120;2023-05-08T05:33:46;100787.09;;;9.39;100.00
22550;BME280;11441;57.164;-2.120;2023-05-08T05:36:13;100773.09;;;9.69;100.00
22550;BME280;11441;57.164;-2.120;2023-05-08T05:38:40;100778.00;;;9.63;100.00
22550;BME280;11441;57.164;-2.120;2023-05-08T05:41:07;100784.88;;;9.69;100.00
22550;BME280;11441;57.164;-2.120;2023-05-08T05:43:34;100792.22;;;9.77;100.00
22550;BME280;11441;57.164;-2.120;2023-05-08T05:46:05;100786.56;;;9.86;100.00
22550;BME280;11441;57.164;-2.120;2023-05-08T05:48:33;100787.56;;;9.94;100.00
22550;BME280;11441;57.164;-2.120;2023-05-08T05:50:59;100783.34;;;9.96;100.00
22550;BME280;11441;57.164;-2.120;2023-05-08T05:53:27;100781.56;;;10.04;100.00
22550;BME280;11441;57.164;-2.120;2023-05-08T05:55:54;100765.03;;;9.76;100.00
22550;BME280;11441;57.164;-2.120;2023-05-08T05:58:21;100757.94;;;9.75;100.00
22550;BME280;11441;57.164;-2.120;2023-05-08T06:00:48;100764.13;;;9.84;100.00
22550;BME280;11441;57.164;-2.120;2023-05-08T06:03:15;100765.50;;;9.78;100.00
22550;BME280;11441;57.164;-2.120;2023-05-08T06:05:42;100769.13;;;9.82;100.00
22550;BME280;11441;57.164;-2.120;2023-05-08T06:08:09;100772.50;;;9.75;100.00
22550;BME280;11441;57.164;-2.120;2023-05-08T06:10:55;100772.13;;;9.77;100.00
22550;BME280;11441;57.164;-2.120;2023-05-08T06:13:22;100777.88;;;9.84;100.00
22550;BME280;11441;57.164;-2.120;2023-05-08T06:15:50;100775.44;;;9.95;100.00
22550;BME280;11441;57.164;-2.120;2023-05-08T06:18:20;100774.75;;;9.98;100.00
22550;BME280;11441;57.164;-2.120;2023-05-08T06:20:47;100765.69;;;9.85;100.00
22550;BME280;11441;57.164;-2.120;2023-05-08T06:23:14;100768.41;;;9.97;100.00
22550;BME280;11441;57.164;-2.120;2023-05-08T06:25:41;100770.47;;;10.00;100.00
22550;BME280;11441;57.164;-2.120;2023-05-08T06:28:08;100752.44;;;10.03;100.00
22550;BME280;11441;57.164;-2.120;2023-05-08T06:30:34;100748.91;;;10.03;100.00
22550;BME280;11441;57.164;-2.120;2023-05-08T06:33:01;100745.16;;;9.95;100.00
22550;BME280;11441;57.164;-2.120;2023-05-08T06:35:28;100734.41;;;9.90;100.00
22550;BME280;11441;57.164;-2.120;2023-05-08T06:37:55;100738.75;;;9.91;100.00
22550;BME280;11441;57.164;-2.120;2023-05-08T06:40:22;100736.56;;;9.96;100.00
22550;BME280;11441;57.164;-2.120;2023-05-08T06:42:49;100726.69;;;9.95;100.00
22550;BME280;11441;57.164;-2.120;2023-05-08T06:45:16;100723.34;;;10.02;100.00
22550;BME280;11441;57.164;-2.120;2023-05-08T06:47:43;100723.53;;;10.09;100.00
22550;BME280;11441;57.164;-2.120;2023-05-08T06:50:27;100739.19;;;10.21;100.00
22550;BME280;11441;57.164;-2.120;2023-05-08T06:52:54;100731.00;;;10.09;100.00
22550;BME280;11441;57.164;-2.120;2023-05-08T06:55:21;100729.78;;;10.22;100.00
22550;BME280;11441;57.164;-2.120;2023-05-08T06:57:48;100732.19;;;10.24;100.00
22550;BME280;11441;57.164;-2.120;2023-05-08T07:00:15;100724.22;;;10.34;100.00
22550;BME280;11441;57.164;-2.120;2023-05-08T07:03:00;100726.94;;;10.18;100.00
22550;BME280;11441;57.164;-2.120;2023-05-08T07:05:27;100721.63;;;10.26;100.00
22550;BME280;11441;57.164;-2.120;2023-05-08T07:07:54;100708.13;;;10.21;100.00
22550;BME280;11441;57.164;-2.120;2023-05-08T07:10:21;100704.06;;;10.30;100.00
22550;BME280;11441;57.164;-2.120;2023-05-08T07:12:48;100698.31;;;10.35;100.00
22550;BME280;11441;57.164;-2.120;2023-05-08T07:15:15;100689.72;;;10.37;100.00
22550;BME280;11441;57.164;-2.120;2023-05-08T07:17:51;100683.25;;;10.45;100.00
22550;BME280;11441;57.164;-2.120;2023-05-08T07:20:18;100691.75;;;10.40;100.00
22550;BME280;11441;57.164;-2.120;2023-05-08T07:22:45;100703.81;;;10.35;100.00
22550;BME280;11441;57.164;-2.120;2023-05-08T07:25:12;100706.06;;;10.62;100.00
22550;BME280;11441;57.164;-2.120;2023-05-08T07:27:39;100706.31;;;10.56;100.00
22550;BME280;11441;57.164;-2.120;2023-05-08T07:30:07;100716.19;;;10.57;100.00
22550;BME280;11441;57.164;-2.120;2023-05-08T07:32:34;100719.75;;;10.74;100.00
22550;BME280;11441;57.164;-2.120;2023-05-08T07:35:01;100715.75;;;10.71;100.00
22550;BME280;11441;57.164;-2.120;2023-05-08T07:37:29;100710.88;;;10.65;100.00
22550;BME280;11441;57.164;-2.120;2023-05-08T07:39:56;100722.31;;;10.83;100.00
22550;BME280;11441;57.164;-2.120;2023-05-08T07:42:23;100717.34;;;10.72;100.00
22550;BME280;11441;57.164;-2.120;2023-05-08T07:44:50;100723.38;;;10.62;100.00
22550;BME280;11441;57.164;-2.120;2023-05-08T07:47:21;100715.31;;;10.69;100.00
22550;BME280;11441;57.164;-2.120;2023-05-08T07:49:48;100723.28;;;10.74;100.00
22550;BME280;11441;57.164;-2.120;2023-05-08T07:52:15;100721.72;;;10.73;100.00
22550;BME280;11441;57.164;-2.120;2023-05-08T07:54:42;100716.81;;;10.83;100.00
22550;BME280;11441;57.164;-2.120;2023-05-08T07:57:09;100712.75;;;10.77;100.00
22550;BME280;11441;57.164;-2.120;2023-05-08T07:59:37;100711.31;;;10.83;100.00
22550;BME280;11441;57.164;-2.120;2023-05-08T08:02:04;100711.56;;;10.78;100.00
22550;BME280;11441;57.164;-2.120;2023-05-08T08:04:31;100711.47;;;10.74;100.00
22550;BME280;11441;57.164;-2.120;2023-05-08T08:06:58;100704.47;;;10.92;100.00
22550;BME280;11441;57.164;-2.120;2023-05-08T08:09:26;100702.94;;;10.95;100.00
22550;BME280;11441;57.164;-2.120;2023-05-08T08:11:53;100699.84;;;10.81;100.00
22550;BME280;11441;57.164;-2.120;2023-05-08T08:14:20;100696.31;;;10.80;100.00
22550;BME280;11441;57.164;-2.120;2023-05-08T08:16:46;100691.56;;;10.81;100.00
22550;BME280;11441;57.164;-2.120;2023-05-08T08:19:15;100679.59;;;10.89;100.00
22550;BME280;11441;57.164;-2.120;2023-05-08T08:21:42;100675.81;;;11.13;100.00
22550;BME280;11441;57.164;-2.120;2023-05-08T08:24:09;100681.88;;;11.03;100.00
22550;BME280;11441;57.164;-2.120;2023-05-08T08:26:36;100690.06;;;10.99;100.00
22550;BME280;11441;57.164;-2.120;2023-05-08T08:29:03;100684.75;;;10.90;100.00
22550;BME280;11441;57.164;-2.120;2023-05-08T08:31:30;100693.13;;;11.13;100.00
22550;BME280;11441;57.164;-2.120;2023-05-08T08:33:57;100688.34;;;11.10;100.00
22550;BME280;11441;57.164;-2.120;2023-05-08T08:36:42;100676.84;;;11.24;100.00
22550;BME280;11441;57.164;-2.120;2023-05-08T08:39:09;100677.63;;;11.25;100.00
22550;BME280;11441;57.164;-2.120;2023-05-08T08:41:39;100669.47;;;11.12;100.00
22550;BME280;11441;57.164;-2.120;2023-05-08T08:44:25;100668.84;;;11.19;100.00
22550;BME280;11441;57.164;-2.120;2023-05-08T08:46:52;100663.59;;;11.14;100.00
22550;BME280;11441;57.164;-2.120;2023-05-08T08:49:27;100657.16;;;11.06;100.00
22550;BME280;11441;57.164;-2.120;2023-05-08T08:52:13;100658.25;;;10.86;100.00
22550;BME280;11441;57.164;-2.120;2023-05-08T08:54:43;100659.47;;;10.88;100.00
22550;BME280;11441;57.164;-2.120;2023-05-08T08:57:11;100658.56;;;11.00;100.00
22550;BME280;11441;57.164;-2.120;2023-05-08T08:59:39;100658.69;;;10.88;100.00
22550;BME280;11441;57.164;-2.120;2023-05-08T09:02:11;100649.34;;;10.92;100.00
22550;BME280;11441;57.164;-2.120;2023-05-08T09:04:40;100646.72;;;10.80;100.00
22550;BME280;11441;57.164;-2.120;2023-05-08T09:07:08;100661.16;;;10.93;100.00
22550;BME280;11441;57.164;-2.120;2023-05-08T09:09:38;100654.91;;;11.12;100.00
22550;BME280;11441;57.164;-2.120;2023-05-08T09:12:06;100655.53;;;11.05;100.00
22550;BME280;11441;57.164;-2.120;2023-05-08T09:14:33;100648.69;;;11.15;100.00
22550;BME280;11441;57.164;-2.120;2023-05-08T09:17:00;100652.50;;;11.10;100.00
22550;BME280;11441;57.164;-2.120;2023-05-08T09:19:27;100652.28;;;11.00;100.00
22550;BME280;11441;57.164;-2.120;2023-05-08T09:21:58;100642.13;;;11.04;100.00
22550;BME280;11441;57.164;-2.120;2023-05-08T09:24:40;100640.88;;;11.01;100.00
22550;BME280;11441;57.164;-2.120;2023-05-08T09:27:23;100640.88;;;11.01;100.00
22550;BME280;11441;57.164;-2.120;2023-05-08T09:30:10;100637.63;;;10.96;100.00
22550;BME280;11441;57.164;-2.120;2023-05-08T09:32:41;100646.63;;;11.12;100.00
22550;BME280;11441;57.164;-2.120;2023-05-08T09:35:10;100651.94;;;10.85;100.00
22550;BME280;11441;57.164;-2.120;2023-05-08T09:37:41;100649.28;;;10.89;100.00
22550;BME280;11441;57.164;-2.120;2023-05-08T09:40:27;100639.25;;;10.81;100.00
22550;BME280;11441;57.164;-2.120;2023-05-08T09:43:12;100645.28;;;10.70;100.00
22550;BME280;11441;57.164;-2.120;2023-05-08T09:45:42;100641.50;;;10.59;100.00
22550;BME280;11441;57.164;-2.120;2023-05-08T09:48:09;100637.91;;;10.27;100.00
22550;BME280;11441;57.164;-2.120;2023-05-08T09:50:36;100634.03;;;10.44;100.00
22550;BME280;11441;57.164;-2.120;2023-05-08T09:53:03;100634.19;;;10.51;100.00
22550;BME280;11441;57.164;-2.120;2023-05-08T09:55:45;100629.75;;;10.62;100.00
22550;BME280;11441;57.164;-2.120;2023-05-08T09:58:12;100616.00;;;10.46;100.00
22550;BME280;11441;57.164;-2.120;2023-05-08T10:00:40;100618.47;;;10.35;100.00
22550;BME280;11441;57.164;-2.120;2023-05-08T10:03:07;100620.00;;;10.49;100.00
22550;BME280;11441;57.164;-2.120;2023-05-08T10:05:34;100611.91;;;10.56;100.00
22550;BME280;11441;57.164;-2.120;2023-05-08T10:08:21;100611.44;;;10.70;100.00
22550;BME280;11441;57.164;-2.120;2023-05-08T10:11:17;100608.69;;;10.70;100.00
22550;BME280;11441;57.164;-2.120;2023-05-08T10:13:44;100603.81;;;10.63;100.00
22550;BME280;11441;57.164;-2.120;2023-05-08T10:16:17;100603.97;;;10.70;100.00
22550;BME280;11441;57.164;-2.120;2023-05-08T10:18:48;100604.25;;;10.49;100.00
22550;BME280;11441;57.164;-2.120;2023-05-08T10:21:16;100602.03;;;10.55;100.00
22550;BME280;11441;57.164;-2.120;2023-05-08T10:23:46;100603.03;;;10.47;100.00
22550;BME280;11441;57.164;-2.120;2023-05-08T10:26:24;100598.69;;;10.46;100.00
22550;BME280;11441;57.164;-2.120;2023-05-08T10:29:12;100609.94;;;10.56;100.00
22550;BME280;11441;57.164;-2.120;2023-05-08T10:31:43;100611.47;;;10.54;100.00
22550;BME280;11441;57.164;-2.120;2023-05-08T10:34:18;100611.63;;;10.61;100.00
22550;BME280;11441;57.164;-2.120;2023-05-08T10:36:46;100604.69;;;10.67;100.00
22550;BME280;11441;57.164;-2.120;2023-05-08T10:39:14;100609.47;;;10.70;100.00
22550;BME280;11441;57.164;-2.120;2023-05-08T10:41:42;100613.94;;;10.75;100.00
22550;BME280;11441;57.164;-2.120;2023-05-08T10:44:09;100610.97;;;10.84;100.00
22550;BME280;11441;57.164;-2.120;2023-05-08T10:46:48;100613.22;;;10.62;100.00
22550;BME280;11441;57.164;-2.120;2023-05-08T10:57:30;100619.91;;;10.61;100.00
22550;BME280;11441;57.164;-2.120;2023-05-08T10:59:57;100618.63;;;10.59;100.00
22550;BME280;11441;57.164;-2.120;2023-05-08T11:02:28;100622.47;;;10.70;100.00
22550;BME280;11441;57.164;-2.120;2023-05-08T11:05:17;100627.19;;;10.69;100.00
22550;BME280;11441;57.164;-2.120;2023-05-08T11:10:19;100616.69;;;10.75;100.00
22550;BME280;11441;57.164;-2.120;2023-05-08T11:12:48;100612.03;;;10.79;100.00
22550;BME280;11441;57.164;-2.120;2023-05-08T11:15:16;100610.53;;;10.82;100.00
22550;BME280;11441;57.164;-2.120;2023-05-08T11:17:52;100618.38;;;10.64;100.00
22550;BME280;11441;57.164;-2.120;2023-05-08T11:20:22;100618.91;;;10.53;100.00
22550;BME280;11441;57.164;-2.120;2023-05-08T11:22:49;100619.63;;;10.66;100.00
22550;BME280;11441;57.164;-2.120;2023-05-08T11:25:16;100614.81;;;10.63;100.00
22550;BME280;11441;57.164;-2.120;2023-05-08T11:38:31;100610.56;;;10.50;100.00
22550;BME280;11441;57.164;-2.120;2023-05-08T11:41:19;100609.69;;;10.46;100.00
22550;BME280;11441;57.164;-2.120;2023-05-08T11:44:14;100604.19;;;10.46;100.00
22550;BME280;11441;57.164;-2.120;2023-05-08T11:46:49;100603.22;;;10.54;100.00
22550;BME280;11441;57.164;-2.120;2023-05-08T11:49:19;100592.63;;;10.56;100.00
22550;BME280;11441;57.164;-2.120;2023-05-08T11:51:53;100591.56;;;10.45;100.00
22550;BME280;11441;57.164;-2.120;2023-05-08T11:54:24;100584.88;;;10.62;100.00
22550;BME280;11441;57.164;-2.120;2023-05-08T11:56:54;100582.16;;;10.46;100.00
22550;BME280;11441;57.164;-2.120;2023-05-08T11:59:21;100592.53;;;10.52;100.00
22550;BME280;11441;57.164;-2.120;2023-05-08T12:01:49;100584.19;;;10.65;100.00
22550;BME280;11441;57.164;-2.120;2023-05-08T12:04:47;100583.38;;;10.48;100.00
22550;BME280;11441;57.164;-2.120;2023-05-08T12:07:14;100581.34;;;10.29;100.00
22550;BME280;11441;57.164;-2.120;2023-05-08T12:09:41;100578.97;;;10.44;100.00
22550;BME280;11441;57.164;-2.120;2023-05-08T12:12:08;100574.97;;;10.41;100.00
22550;BME280;11441;57.164;-2.120;2023-05-08T12:14:35;100572.28;;;10.61;100.00
22550;BME280;11441;57.164;-2.120;2023-05-08T12:17:02;100567.28;;;10.66;100.00
22550;BME280;11441;57.164;-2.120;2023-05-08T12:19:29;100565.69;;;10.65;100.00
22550;BME280;11441;57.164;-2.120;2023-05-08T12:21:56;100561.06;;;10.69;100.00
22550;BME280;11441;57.164;-2.120;2023-05-08T12:24:23;100565.25;;;10.63;100.00
22550;BME280;11441;57.164;-2.120;2023-05-08T12:26:54;100559.25;;;10.77;100.00
22550;BME280;11441;57.164;-2.120;2023-05-08T12:29:22;100564.25;;;10.71;100.00
22550;BME280;11441;57.164;-2.120;2023-05-08T12:31:50;100551.00;;;10.77;100.00
22550;BME280;11441;57.164;-2.120;2023-05-08T12:34:36;100551.75;;;10.93;100.00
22550;BME280;11441;57.164;-2.120;2023-05-08T12:37:03;100543.97;;;10.80;100.00
22550;BME280;11441;57.164;-2.120;2023-05-08T12:39:34;100541.41;;;10.71;100.00
22550;BME280;11441;57.164;-2.120;2023-05-08T12:42:03;100543.13;;;10.60;100.00
22550;BME280;11441;57.164;-2.120;2023-05-08T12:44:30;100544.25;;;10.74;100.00
22550;BME280;11441;57.164;-2.120;2023-05-08T12:46:57;100539.59;;;10.43;100.00
22550;BME280;11441;57.164;-2.120;2023-05-08T12:49:28;100542.72;;;10.57;100.00
22550;BME280;11441;57.164;-2.120;2023-05-08T12:52:03;100537.72;;;10.63;100.00
22550;BME280;11441;57.164;-2.120;2023-05-08T12:54:48;100546.56;;;10.72;100.00
22550;BME280;11441;57.164;-2.120;2023-05-08T12:57:35;100541.69;;;10.66;100.00
22550;BME280;11441;57.164;-2.120;2023-05-08T13:00:04;100543.13;;;10.60;100.00
22550;BME280;11441;57.164;-2.120;2023-05-08T13:02:31;100540.78;;;10.78;100.00
22550;BME280;11441;57.164;-2.120;2023-05-08T13:05:01;100545.56;;;10.81;100.00
22550;BME280;11441;57.164;-2.120;2023-05-08T13:07:32;100536.88;;;10.79;100.00
22550;BME280;11441;57.164;-2.120;2023-05-08T13:10:01;100543.03;;;10.72;100.00
22550;BME280;11441;57.164;-2.120;2023-05-08T13:12:31;100536.31;;;10.89;100.00
22550;BME280;11441;57.164;-2.120;2023-05-08T13:15:17;100528.47;;;11.10;100.00
22550;BME280;11441;57.164;-2.120;2023-05-08T13:17:44;100527.00;;;10.97;100.00
22550;BME280;11441;57.164;-2.120;2023-05-08T13:20:12;100515.63;;;10.99;100.00
22550;BME280;11441;57.164;-2.120;2023-05-08T13:22:48;100511.16;;;11.10;100.00
22550;BME280;11441;57.164;-2.120;2023-05-08T13:25:35;100488.16;;;11.02;100.00
22550;BME280;11441;57.164;-2.120;2023-05-08T13:28:07;100509.84;;;11.04;100.00
22550;BME280;11441;57.164;-2.120;2023-05-08T13:31:19;100511.84;;;11.26;100.00
22550;BME280;11441;57.164;-2.120;2023-05-08T13:33:50;100505.50;;;11.22;100.00
22550;BME280;11441;57.164;-2.120;2023-05-08T13:36:18;100511.34;;;11.40;100.00